sensor_id;sensor_type;location;lat;lon;timestamp;temperature;humidity
40660;DHT22;26753;45.544;9.232;2023-05-27T00:01:29;24.50;99.90
40660;DHT22;26753;45.544;9.232;2023-05-27T00:03:54;24.50;99.90
40660;DHT22;26753;45.544;9.232;2023-05-27T00:06:21;24.50;99.90
40660;DHT22;26753;45.544;9.232;2023-05-27T00:09:00;24.40;99.90
40660;DHT22;26753;45.544;9.232;2023-05-27T00:14:22;24.30;99.90
40660;DHT22;26753;45.544;9.232;2023-05-27T00:16:49;24.30;99.90
40660;DHT22;26753;45.544;9.232;2023-05-27T00:19:16;24.30;99.90
40660;DHT22;26753;45.544;9.232;2023-05-27T00:21:58;24.20;99.90
40660;DHT22;26753;45.544;9.232;2023-05-27T00:24:42;24.20;99.90
40660;DHT22;26753;45.544;9.232;2023-05-27T00:27:14;24.30;99.90
40660;DHT22;26753;45.544;9.232;2023-05-27T00:29:45;24.30;99.90
40660;DHT22;26753;45.544;9.232;2023-05-27T00:32:11;24.30;99.90
40660;DHT22;26753;45.544;9.232;2023-05-27T00:34:36;24.20;99.90
40660;DHT22;26753;45.544;9.232;2023-05-27T00:37:05;24.20;99.90
40660;DHT22;26753;45.544;9.232;2023-05-27T00:39:31;24.20;99.90
40660;DHT22;26753;45.544;9.232;2023-05-27T00:44:53;24.20;99.90
40660;DHT22;26753;45.544;9.232;2023-05-27T00:47:33;24.10;99.90
40660;DHT22;26753;45.544;9.232;2023-05-27T01:02:31;24.00;99.90
40660;DHT22;26753;45.544;9.232;2023-05-27T01:05:32;24.00;99.90
40660;DHT22;26753;45.544;9.232;2023-05-27T01:21:05;23.90;99.90
40660;DHT22;26753;45.544;9.232;2023-05-27T01:23:31;23.80;99.90
40660;DHT22;26753;45.544;9.232;2023-05-27T01:36:16;23.90;99.90
40660;DHT22;26753;45.544;9.232;2023-05-27T01:42:00;23.80;99.90
40660;DHT22;26753;45.544;9.232;2023-05-27T02:09:35;23.60;99.90
40660;DHT22;26753;45.544;9.232;2023-05-27T02:19:06;23.50;99.90
40660;DHT22;26753;45.544;9.232;2023-05-27T02:48:34;23.40;99.90
40660;DHT22;26753;45.544;9.232;2023-05-27T03:00:53;23.30;99.90
40660;DHT22;26753;45.544;9.232;2023-05-27T03:28:43;22.80;99.90
40660;DHT22;26753;45.544;9.232;2023-05-27T03:31:24;22.70;99.90
40660;DHT22;26753;45.544;9.232;2023-05-27T03:34:24;22.60;99.90
40660;DHT22;26753;45.544;9.232;2023-05-27T03:37:12;22.50;99.90
40660;DHT22;26753;45.544;9.232;2023-05-27T03:39:41;22.40;99.90
40660;DHT22;26753;45.544;9.232;2023-05-27T03:42:10;22.40;99.90
40660;DHT22;26753;45.544;9.232;2023-05-27T03:44:45;22.30;99.90
40660;DHT22;26753;45.544;9.232;2023-05-27T03:47:10;22.30;99.90
40660;DHT22;26753;45.544;9.232;2023-05-27T03:49:36;22.20;99.90
40660;DHT22;26753;45.544;9.232;2023-05-27T03:52:02;22.20;99.90
40660;DHT22;26753;45.544;9.232;2023-05-27T03:54:28;22.20;99.90
40660;DHT22;26753;45.544;9.232;2023-05-27T03:56:54;22.10;99.90
40660;DHT22;26753;45.544;9.232;2023-05-27T03:59:20;22.00;99.90
40660;DHT22;26753;45.544;9.232;2023-05-27T04:01:46;22.10;99.90
40660;DHT22;26753;45.544;9.232;2023-05-27T04:04:15;22.10;99.90
40660;DHT22;26753;45.544;9.232;2023-05-27T04:06:40;21.90;99.90
40660;DHT22;26753;45.544;9.232;2023-05-27T04:09:09;21.80;99.90
40660;DHT22;26753;45.544;9.232;2023-05-27T04:11:35;21.90;99.90
40660;DHT22;26753;45.544;9.232;2023-05-27T04:14:01;21.90;99.90
40660;DHT22;26753;45.544;9.232;2023-05-27T04:16:32;21.90;99.90
40660;DHT22;26753;45.544;9.232;2023-05-27T04:18:59;21.80;99.90
40660;DHT22;26753;45.544;9.232;2023-05-27T04:21:28;21.80;99.90
40660;DHT22;26753;45.544;9.232;2023-05-27T04:23:59;21.80;99.90
40660;DHT22;26753;45.544;9.232;2023-05-27T04:26:25;21.90;99.90
40660;DHT22;26753;45.544;9.232;2023-05-27T04:28:53;21.90;99.90
40660;DHT22;26753;45.544;9.232;2023-05-27T04:31:22;21.80;99.90
40660;DHT22;26753;45.544;9.232;2023-05-27T04:33:48;21.90;99.90
40660;DHT22;26753;45.544;9.232;2023-05-27T04:36:16;21.80;99.90
40660;DHT22;26753;45.544;9.232;2023-05-27T04:38:42;21.80;99.90
40660;DHT22;26753;45.544;9.232;2023-05-27T04:41:13;21.80;99.90
40660;DHT22;26753;45.544;9.232;2023-05-27T04:43:39;21.80;99.90
40660;DHT22;26753;45.544;9.232;2023-05-27T04:46:07;21.80;99.90
40660;DHT22;26753;45.544;9.232;2023-05-27T04:48:33;21.80;99.90
40660;DHT22;26753;45.544;9.232;2023-05-27T04:51:03;21.70;99.90
40660;DHT22;26753;45.544;9.232;2023-05-27T04:53:29;21.80;99.90
40660;DHT22;26753;45.544;9.232;2023-05-27T04:55:55;21.80;99.90
40660;DHT22;26753;45.544;9.232;2023-05-27T04:58:22;21.70;99.90
40660;DHT22;26753;45.544;9.232;2023-05-27T05:00:48;21.70;99.90
40660;DHT22;26753;45.544;9.232;2023-05-27T05:03:21;21.80;99.90
40660;DHT22;26753;45.544;9.232;2023-05-27T05:05:49;21.80;99.90
40660;DHT22;26753;45.544;9.232;2023-05-27T05:08:20;21.90;99.90
40660;DHT22;26753;45.544;9.232;2023-05-27T05:10:51;21.90;99.90
40660;DHT22;26753;45.544;9.232;2023-05-27T05:13:19;21.90;99.90
40660;DHT22;26753;45.544;9.232;2023-05-27T05:15:55;21.90;99.90
40660;DHT22;26753;45.544;9.232;2023-05-27T05:18:34;21.90;99.90
40660;DHT22;26753;45.544;9.232;2023-05-27T05:21:02;21.90;99.90
40660;DHT22;26753;45.544;9.232;2023-05-27T05:23:31;21.90;99.90
40660;DHT22;26753;45.544;9.232;2023-05-27T05:25:57;22.00;99.90
40660;DHT22;26753;45.544;9.232;2023-05-27T05:28:31;21.90;99.90
40660;DHT22;26753;45.544;9.232;2023-05-27T05:31:00;22.00;99.90
40660;DHT22;26753;45.544;9.232;2023-05-27T05:33:31;22.00;99.90
40660;DHT22;26753;45.544;9.232;2023-05-27T05:35:57;22.10;99.90
40660;DHT22;26753;45.544;9.232;2023-05-27T05:38:25;22.10;99.90
40660;DHT22;26753;45.544;9.232;2023-05-27T05:40:54;22.10;99.90
40660;DHT22;26753;45.544;9.232;2023-05-27T05:43:20;22.20;99.90
40660;DHT22;26753;45.544;9.232;2023-05-27T05:45:51;22.20;99.90
40660;DHT22;26753;45.544;9.232;2023-05-27T05:48:16;22.30;99.90
40660;DHT22;26753;45.544;9.232;2023-05-27T05:50:44;22.30;99.90
40660;DHT22;26753;45.544;9.232;2023-05-27T05:53:36;22.40;99.90
40660;DHT22;26753;45.544;9.232;2023-05-27T05:56:04;22.40;99.90
40660;DHT22;26753;45.544;9.232;2023-05-27T05:58:30;22.40;99.90
40660;DHT22;26753;45.544;9.232;2023-05-27T06:00:55;22.40;99.90
40660;DHT22;26753;45.544;9.232;2023-05-27T06:03:30;22.40;99.90
40660;DHT22;26753;45.544;9.232;2023-05-27T06:06:02;22.50;99.90
40660;DHT22;26753;45.544;9.232;2023-05-27T06:08:28;22.60;99.90
40660;DHT22;26753;45.544;9.232;2023-05-27T06:11:10;22.70;99.90
40660;DHT22;26753;45.544;9.232;2023-05-27T06:13:35;22.70;99.90
40660;DHT22;26753;45.544;9.232;2023-05-27T06:16:04;22.80;99.90
40660;DHT22;26753;45.544;9.232;2023-05-27T06:18:35;22.90;99.90
40660;DHT22;26753;45.544;9.232;2023-05-27T06:21:14;23.00;99.90
40660;DHT22;26753;45.544;9.232;2023-05-27T06:23:48;23.70;99.90
40660;DHT22;26753;45.544;9.232;2023-05-27T06:26:19;23.20;99.90
40660;DHT22;26753;45.544;9.232;2023-05-27T06:28:44;23.40;99.90
40660;DHT22;26753;45.544;9.232;2023-05-27T06:31:13;23.80;99.90
40660;DHT22;26753;45.544;9.232;2023-05-27T06:33:47;23.90;99.90
40660;DHT22;26753;45.544;9.232;2023-05-27T06:36:19;23.90;99.90
40660;DHT22;26753;45.544;9.232;2023-05-27T06:38:44;24.10;99.90
40660;DHT22;26753;45.544;9.232;2023-05-27T06:41:13;24.10;99.90
40660;DHT22;26753;45.544;9.232;2023-05-27T06:50:06;24.00;99.90
40660;DHT22;26753;45.544;9.232;2023-05-27T06:52:35;23.80;99.90
40660;DHT22;26753;45.544;9.232;2023-05-27T06:55:17;23.80;99.90
40660;DHT22;26753;45.544;9.232;2023-05-27T06:58:06;23.90;99.90
40660;DHT22;26753;45.544;9.232;2023-05-27T07:00:35;23.90;99.90
40660;DHT22;26753;45.544;9.232;2023-05-27T07:08:40;23.90;99.90
40660;DHT22;26753;45.544;9.232;2023-05-27T07:36:28;25.00;99.90
40660;DHT22;26753;45.544;9.232;2023-05-27T07:41:41;25.20;99.90
40660;DHT22;26753;45.544;9.232;2023-05-27T07:44:12;25.30;99.90
40660;DHT22;26753;45.544;9.232;2023-05-27T07:49:38;25.40;99.90
40660;DHT22;26753;45.544;9.232;2023-05-27T07:52:25;25.50;99.90
40660;DHT22;26753;45.544;9.232;2023-05-27T07:54:50;25.60;99.90
40660;DHT22;26753;45.544;9.232;2023-05-27T07:57:17;25.70;99.90
40660;DHT22;26753;45.544;9.232;2023-05-27T07:59:48;25.90;99.90
40660;DHT22;26753;45.544;9.232;2023-05-27T08:02:19;26.10;99.90
40660;DHT22;26753;45.544;9.232;2023-05-27T08:04:51;26.10;99.90
40660;DHT22;26753;45.544;9.232;2023-05-27T08:38:02;25.90;99.90
40660;DHT22;26753;45.544;9.232;2023-05-27T08:40:28;25.80;99.90
40660;DHT22;26753;45.544;9.232;2023-05-27T08:42:54;25.60;99.90
40660;DHT22;26753;45.544;9.232;2023-05-27T08:45:20;25.60;99.90
40660;DHT22;26753;45.544;9.232;2023-05-27T08:47:47;25.60;99.90
40660;DHT22;26753;45.544;9.232;2023-05-27T08:50:18;25.50;99.90
40660;DHT22;26753;45.544;9.232;2023-05-27T08:52:47;25.80;99.90
40660;DHT22;26753;45.544;9.232;2023-05-27T08:55:14;25.80;99.90
40660;DHT22;26753;45.544;9.232;2023-05-27T08:57:41;25.80;99.90
40660;DHT22;26753;45.544;9.232;2023-05-27T09:00:11;26.00;99.90
40660;DHT22;26753;45.544;9.232;2023-05-27T09:02:39;26.00;99.90
40660;DHT22;26753;45.544;9.232;2023-05-27T09:05:08;26.10;99.90
40660;DHT22;26753;45.544;9.232;2023-05-27T09:07:51;26.20;99.90
40660;DHT22;26753;45.544;9.232;2023-05-27T09:13:33;26.20;99.90
40660;DHT22;26753;45.544;9.232;2023-05-27T09:16:03;26.40;99.90
40660;DHT22;26753;45.544;9.232;2023-05-27T09:18:30;26.50;99.90
40660;DHT22;26753;45.544;9.232;2023-05-27T09:21:16;26.60;99.90
40660;DHT22;26753;45.544;9.232;2023-05-27T09:23:42;26.70;99.90
40660;DHT22;26753;45.544;9.232;2023-05-27T09:26:11;26.70;99.90
40660;DHT22;26753;45.544;9.232;2023-05-27T09:28:49;26.60;99.90
40660;DHT22;26753;45.544;9.232;2023-05-27T09:50:26;27.00;99.90
40660;DHT22;26753;45.544;9.232;2023-05-27T09:53:41;27.10;99.90
40660;DHT22;26753;45.544;9.232;2023-05-27T09:56:11;27.10;99.90
40660;DHT22;26753;45.544;9.232;2023-05-27T09:58:37;27.40;99.90
40660;DHT22;26753;45.544;9.232;2023-05-27T10:01:02;27.40;99.90
40660;DHT22;26753;45.544;9.232;2023-05-27T10:03:29;27.40;99.90
40660;DHT22;26753;45.544;9.232;2023-05-27T10:05:55;27.50;99.90
40660;DHT22;26753;45.544;9.232;2023-05-27T10:08:24;27.60;99.90
40660;DHT22;26753;45.544;9.232;2023-05-27T10:10:50;27.50;99.90
40660;DHT22;26753;45.544;9.232;2023-05-27T10:13:28;27.50;99.90
40660;DHT22;26753;45.544;9.232;2023-05-27T10:18:54;27.70;99.90
40660;DHT22;26753;45.544;9.232;2023-05-27T10:21:20;27.60;99.90
40660;DHT22;26753;45.544;9.232;2023-05-27T10:23:59;27.70;99.90
40660;DHT22;26753;45.544;9.232;2023-05-27T10:26:42;27.80;99.90
40660;DHT22;26753;45.544;9.232;2023-05-27T10:29:09;28.10;99.90
40660;DHT22;26753;45.544;9.232;2023-05-27T10:31:35;28.10;99.90
40660;DHT22;26753;45.544;9.232;2023-05-27T10:34:06;28.20;99.90
40660;DHT22;26753;45.544;9.232;2023-05-27T10:36:31;28.30;99.90
40660;DHT22;26753;45.544;9.232;2023-05-27T10:38:58;28.50;99.90
40660;DHT22;26753;45.544;9.232;2023-05-27T10:41:24;28.40;99.90
40660;DHT22;26753;45.544;9.232;2023-05-27T10:43:56;28.60;99.90
40660;DHT22;26753;45.544;9.232;2023-05-27T10:46:25;28.60;99.90
40660;DHT22;26753;45.544;9.232;2023-05-27T10:48:51;28.70;99.90
40660;DHT22;26753;45.544;9.232;2023-05-27T10:51:17;28.70;99.90
40660;DHT22;26753;45.544;9.232;2023-05-27T10:53:43;28.80;99.90
40660;DHT22;26753;45.544;9.232;2023-05-27T10:56:09;29.00;99.90
40660;DHT22;26753;45.544;9.232;2023-05-27T10:58:36;29.20;99.90
40660;DHT22;26753;45.544;9.232;2023-05-27T11:01:11;28.90;99.90
40660;DHT22;26753;45.544;9.232;2023-05-27T11:03:47;28.70;99.90
40660;DHT22;26753;45.544;9.232;2023-05-27T11:06:15;28.90;99.90
40660;DHT22;26753;45.544;9.232;2023-05-27T11:08:41;29.10;99.90
40660;DHT22;26753;45.544;9.232;2023-05-27T11:11:08;29.30;99.90
40660;DHT22;26753;45.544;9.232;2023-05-27T11:13:35;29.30;99.90
40660;DHT22;26753;45.544;9.232;2023-05-27T11:16:06;29.40;99.90
40660;DHT22;26753;45.544;9.232;2023-05-27T11:18:39;29.30;99.90
40660;DHT22;26753;45.544;9.232;2023-05-27T11:21:05;29.30;99.90
40660;DHT22;26753;45.544;9.232;2023-05-27T11:23:37;29.50;99.90
40660;DHT22;26753;45.544;9.232;2023-05-27T11:28:44;29.60;99.90
40660;DHT22;26753;45.544;9.232;2023-05-27T11:31:13;29.70;99.90
40660;DHT22;26753;45.544;9.232;2023-05-27T11:33:42;29.70;99.90
40660;DHT22;26753;45.544;9.232;2023-05-27T11:36:12;30.00;99.90
40660;DHT22;26753;45.544;9.232;2023-05-27T11:41:13;30.50;99.90
40660;DHT22;26753;45.544;9.232;2023-05-27T11:43:51;30.30;99.90
40660;DHT22;26753;45.544;9.232;2023-05-27T11:46:23;30.20;99.90
40660;DHT22;26753;45.544;9.232;2023-05-27T11:48:49;30.30;99.90
40660;DHT22;26753;45.544;9.232;2023-05-27T11:51:28;30.50;99.90
40660;DHT22;26753;45.544;9.232;2023-05-27T11:53:54;30.70;99.90
40660;DHT22;26753;45.544;9.232;2023-05-27T11:56:20;30.40;99.90
40660;DHT22;26753;45.544;9.232;2023-05-27T11:58:47;30.50;99.90
40660;DHT22;26753;45.544;9.232;2023-05-27T12:01:15;30.70;99.90
40660;DHT22;26753;45.544;9.232;2023-05-27T12:03:41;30.70;99.90
40660;DHT22;26753;45.544;9.232;2023-05-27T12:06:06;31.10;99.90
40660;DHT22;26753;45.544;9.232;2023-05-27T12:08:36;31.30;98.70
40660;DHT22;26753;45.544;9.232;2023-05-27T12:11:05;31.40;98.10
40660;DHT22;26753;45.544;9.232;2023-05-27T12:13:31;31.40;97.80
40660;DHT22;26753;45.544;9.232;2023-05-27T12:15:57;31.50;97.30
40660;DHT22;26753;45.544;9.232;2023-05-27T12:18:26;31.20;96.60
40660;DHT22;26753;45.544;9.232;2023-05-27T12:20:51;31.70;96.30
40660;DHT22;26753;45.544;9.232;2023-05-27T12:23:17;32.10;95.90
40660;DHT22;26753;45.544;9.232;2023-05-27T12:25:46;32.30;95.40
40660;DHT22;26753;45.544;9.232;2023-05-27T12:28:17;32.50;95.00
40660;DHT22;26753;45.544;9.232;2023-05-27T12:30:43;32.40;95.00
40660;DHT22;26753;45.544;9.232;2023-05-27T12:36:07;32.00;95.00
40660;DHT22;26753;45.544;9.232;2023-05-27T12:38:36;32.30;94.40
40660;DHT22;26753;45.544;9.232;2023-05-27T12:41:05;32.10;94.10
40660;DHT22;26753;45.544;9.232;2023-05-27T12:43:31;32.20;94.20
40660;DHT22;26753;45.544;9.232;2023-05-27T12:45:57;32.70;94.00
40660;DHT22;26753;45.544;9.232;2023-05-27T12:48:24;32.90;94.50
40660;DHT22;26753;45.544;9.232;2023-05-27T12:50:49;33.00;92.60
40660;DHT22;26753;45.544;9.232;2023-05-27T12:53:15;33.00;92.20
40660;DHT22;26753;45.544;9.232;2023-05-27T12:55:45;32.60;92.30
40660;DHT22;26753;45.544;9.232;2023-05-27T12:58:16;32.10;93.00
40660;DHT22;26753;45.544;9.232;2023-05-27T13:00:42;32.30;93.10
40660;DHT22;26753;45.544;9.232;2023-05-27T13:03:09;32.20;93.70
40660;DHT22;26753;45.544;9.232;2023-05-27T13:05:35;32.40;93.70
40660;DHT22;26753;45.544;9.232;2023-05-27T13:08:02;32.10;93.90
40660;DHT22;26753;45.544;9.232;2023-05-27T13:10:28;31.50;94.10
40660;DHT22;26753;45.544;9.232;2023-05-27T13:12:57;32.10;93.70
40660;DHT22;26753;45.544;9.232;2023-05-27T13:15:26;32.70;93.50
40660;DHT22;26753;45.544;9.232;2023-05-27T13:18:45;33.00;92.50
40660;DHT22;26753;45.544;9.232;2023-05-27T13:20:52;33.20;92.40
40660;DHT22;26753;45.544;9.232;2023-05-27T13:23:21;33.60;92.40
40660;DHT22;26753;45.544;9.232;2023-05-27T13:25:50;34.00;92.10
40660;DHT22;26753;45.544;9.232;2023-05-27T13:28:19;34.50;91.40
40660;DHT22;26753;45.544;9.232;2023-05-27T13:40:31;35.30;89.00
40660;DHT22;26753;45.544;9.232;2023-05-27T13:43:03;35.60;86.30
40660;DHT22;26753;45.544;9.232;2023-05-27T13:51:32;36.00;86.00
40660;DHT22;26753;45.544;9.232;2023-05-27T13:54:04;36.30;83.50
40660;DHT22;26753;45.544;9.232;2023-05-27T13:56:38;35.20;83.00
40660;DHT22;26753;45.544;9.232;2023-05-27T13:59:45;35.20;83.10
40660;DHT22;26753;45.544;9.232;2023-05-27T14:02:16;35.60;83.40
40660;DHT22;26753;45.544;9.232;2023-05-27T14:04:41;36.20;82.70
40660;DHT22;26753;45.544;9.232;2023-05-27T14:07:30;36.30;82.60
40660;DHT22;26753;45.544;9.232;2023-05-27T14:10:02;36.80;82.00
40660;DHT22;26753;45.544;9.232;2023-05-27T14:12:28;36.30;80.00
40660;DHT22;26753;45.544;9.232;2023-05-27T14:14:57;36.20;81.00
40660;DHT22;26753;45.544;9.232;2023-05-27T14:17:23;36.50;80.50
40660;DHT22;26753;45.544;9.232;2023-05-27T14:19:48;36.70;80.50
40660;DHT22;26753;45.544;9.232;2023-05-27T14:22:14;37.20;79.70
40660;DHT22;26753;45.544;9.232;2023-05-27T14:24:45;36.90;78.80
40660;DHT22;26753;45.544;9.232;2023-05-27T14:30:41;37.70;78.40
40660;DHT22;26753;45.544;9.232;2023-05-27T14:33:39;37.60;77.70
40660;DHT22;26753;45.544;9.232;2023-05-27T14:36:15;37.50;77.70
40660;DHT22;26753;45.544;9.232;2023-05-27T14:38:44;37.60;78.00
40660;DHT22;26753;45.544;9.232;2023-05-27T14:41:31;37.90;77.40
40660;DHT22;26753;45.544;9.232;2023-05-27T14:46:45;38.90;76.30
40660;DHT22;26753;45.544;9.232;2023-05-27T14:49:15;39.10;74.80
40660;DHT22;26753;45.544;9.232;2023-05-27T14:51:47;38.50;74.20
40660;DHT22;26753;45.544;9.232;2023-05-27T14:54:45;38.10;74.60
40660;DHT22;26753;45.544;9.232;2023-05-27T14:57:22;37.70;75.30
40660;DHT22;26753;45.544;9.232;2023-05-27T14:59:51;40.10;73.60
40660;DHT22;26753;45.544;9.232;2023-05-27T15:02:20;42.70;70.40
40660;DHT22;26753;45.544;9.232;2023-05-27T15:05:04;44.10;67.60
40660;DHT22;26753;45.544;9.232;2023-05-27T15:07:49;45.40;65.10
40660;DHT22;26753;45.544;9.232;2023-05-27T15:10:33;46.10;63.60
40660;DHT22;26753;45.544;9.232;2023-05-27T15:12:59;45.80;61.80
40660;DHT22;26753;45.544;9.232;2023-05-27T15:15:32;44.00;62.10
40660;DHT22;26753;45.544;9.232;2023-05-27T15:18:36;44.40;62.40
40660;DHT22;26753;45.544;9.232;2023-05-27T15:21:04;44.10;61.50
40660;DHT22;26753;45.544;9.232;2023-05-27T15:23:30;44.50;61.10
40660;DHT22;26753;45.544;9.232;2023-05-27T15:25:56;45.00;61.00
40660;DHT22;26753;45.544;9.232;2023-05-27T15:28:22;45.10;60.60
40660;DHT22;26753;45.544;9.232;2023-05-27T15:30:47;42.60;61.00
40660;DHT22;26753;45.544;9.232;2023-05-27T15:33:18;43.70;61.70
40660;DHT22;26753;45.544;9.232;2023-05-27T15:35:43;44.80;61.10
40660;DHT22;26753;45.544;9.232;2023-05-27T15:38:15;44.90;59.90
40660;DHT22;26753;45.544;9.232;2023-05-27T15:40:41;44.40;60.40
40660;DHT22;26753;45.544;9.232;2023-05-27T15:43:09;43.20;60.30
40660;DHT22;26753;45.544;9.232;2023-05-27T15:45:35;43.30;60.80
40660;DHT22;26753;45.544;9.232;2023-05-27T15:48:04;43.30;61.00
40660;DHT22;26753;45.544;9.232;2023-05-27T15:50:35;44.50;60.50
40660;DHT22;26753;45.544;9.232;2023-05-27T15:53:04;45.00;59.80
40660;DHT22;26753;45.544;9.232;2023-05-27T15:55:35;45.60;59.50
40660;DHT22;26753;45.544;9.232;2023-05-27T15:58:04;46.00;58.90
40660;DHT22;26753;45.544;9.232;2023-05-27T16:00:30;46.20;57.90
40660;DHT22;26753;45.544;9.232;2023-05-27T16:02:56;46.40;58.00
40660;DHT22;26753;45.544;9.232;2023-05-27T16:05:24;45.40;57.20
40660;DHT22;26753;45.544;9.232;2023-05-27T16:11:09;44.30;58.10
40660;DHT22;26753;45.544;9.232;2023-05-27T16:13:38;44.00;58.30
40660;DHT22;26753;45.544;9.232;2023-05-27T16:16:10;43.70;58.20
40660;DHT22;26753;45.544;9.232;2023-05-27T16:21:29;42.80;59.10
40660;DHT22;26753;45.544;9.232;2023-05-27T16:23:56;43.60;58.80
40660;DHT22;26753;45.544;9.232;2023-05-27T16:26:22;44.10;58.40
40660;DHT22;26753;45.544;9.232;2023-05-27T16:28:48;44.00;58.10
40660;DHT22;26753;45.544;9.232;2023-05-27T16:31:17;43.00;58.20
40660;DHT22;26753;45.544;9.232;2023-05-27T16:33:46;41.60;58.90
40660;DHT22;26753;45.544;9.232;2023-05-27T16:36:19;39.80;59.90
40660;DHT22;26753;45.544;9.232;2023-05-27T16:38:45;38.40;61.40
40660;DHT22;26753;45.544;9.232;2023-05-27T16:41:11;36.50;63.60
40660;DHT22;26753;45.544;9.232;2023-05-27T16:43:37;35.10;65.60
40660;DHT22;26753;45.544;9.232;2023-05-27T16:46:03;34.90;66.30
40660;DHT22;26753;45.544;9.232;2023-05-27T16:48:29;34.60;66.80
40660;DHT22;26753;45.544;9.232;2023-05-27T16:50:54;34.70;67.10
40660;DHT22;26753;45.544;9.232;2023-05-27T16:53:20;35.00;67.20
40660;DHT22;26753;45.544;9.232;2023-05-27T16:55:46;35.40;66.60
40660;DHT22;26753;45.544;9.232;2023-05-27T16:58:12;36.10;65.90
40660;DHT22;26753;45.544;9.232;2023-05-27T17:00:41;35.60;65.90
40660;DHT22;26753;45.544;9.232;2023-05-27T17:03:07;35.10;66.50
40660;DHT22;26753;45.544;9.232;2023-05-27T17:05:36;34.60;67.40
40660;DHT22;26753;45.544;9.232;2023-05-27T17:08:01;34.60;67.50
40660;DHT22;26753;45.544;9.232;2023-05-27T17:10:27;34.20;67.90
40660;DHT22;26753;45.544;9.232;2023-05-27T17:12:53;34.20;68.40
40660;DHT22;26753;45.544;9.232;2023-05-27T17:15:19;34.30;68.50
40660;DHT22;26753;45.544;9.232;2023-05-27T17:17:47;34.30;68.80
40660;DHT22;26753;45.544;9.232;2023-05-27T17:20:13;34.10;69.40
40660;DHT22;26753;45.544;9.232;2023-05-27T17:22:47;33.50;70.20
40660;DHT22;26753;45.544;9.232;2023-05-27T17:25:25;33.20;71.50
40660;DHT22;26753;45.544;9.232;2023-05-27T17:27:51;33.10;71.40
40660;DHT22;26753;45.544;9.232;2023-05-27T17:30:17;32.70;71.90
40660;DHT22;26753;45.544;9.232;2023-05-27T17:32:43;32.60;72.40
40660;DHT22;26753;45.544;9.232;2023-05-27T17:35:08;32.70;72.80
40660;DHT22;26753;45.544;9.232;2023-05-27T17:37:34;32.70;72.90
40660;DHT22;26753;45.544;9.232;2023-05-27T17:40:00;32.60;73.20
40660;DHT22;26753;45.544;9.232;2023-05-27T17:42:33;32.50;73.80
40660;DHT22;26753;45.544;9.232;2023-05-27T17:44:58;32.20;74.10
40660;DHT22;26753;45.544;9.232;2023-05-27T17:47:27;31.90;74.80
40660;DHT22;26753;45.544;9.232;2023-05-27T17:49:56;31.80;75.20
40660;DHT22;26753;45.544;9.232;2023-05-27T17:52:22;31.50;75.50
40660;DHT22;26753;45.544;9.232;2023-05-27T17:54:48;31.20;76.10
40660;DHT22;26753;45.544;9.232;2023-05-27T17:57:14;30.90;76.60
40660;DHT22;26753;45.544;9.232;2023-05-27T17:59:39;30.80;76.90
40660;DHT22;26753;45.544;9.232;2023-05-27T18:02:08;30.60;77.30
40660;DHT22;26753;45.544;9.232;2023-05-27T18:04:34;30.50;78.00
40660;DHT22;26753;45.544;9.232;2023-05-27T18:06:59;30.40;78.10
40660;DHT22;26753;45.544;9.232;2023-05-27T18:09:25;30.30;78.40
40660;DHT22;26753;45.544;9.232;2023-05-27T18:11:51;30.20;78.70
40660;DHT22;26753;45.544;9.232;2023-05-27T18:14:16;30.00;79.50
40660;DHT22;26753;45.544;9.232;2023-05-27T18:16:42;29.90;79.80
40660;DHT22;26753;45.544;9.232;2023-05-27T18:19:08;29.80;79.70
40660;DHT22;26753;45.544;9.232;2023-05-27T18:21:33;29.70;80.20
40660;DHT22;26753;45.544;9.232;2023-05-27T18:23:59;29.60;80.40
40660;DHT22;26753;45.544;9.232;2023-05-27T18:26:25;29.40;81.40
40660;DHT22;26753;45.544;9.232;2023-05-27T18:29:00;29.10;84.10
40660;DHT22;26753;45.544;9.232;2023-05-27T18:34:21;28.30;88.80
40660;DHT22;26753;45.544;9.232;2023-05-27T18:36:46;28.10;90.50
40660;DHT22;26753;45.544;9.232;2023-05-27T18:39:18;27.90;91.50
40660;DHT22;26753;45.544;9.232;2023-05-27T18:41:44;27.70;92.00
40660;DHT22;26753;45.544;9.232;2023-05-27T18:44:10;27.70;92.40
40660;DHT22;26753;45.544;9.232;2023-05-27T18:46:38;27.60;93.10
40660;DHT22;26753;45.544;9.232;2023-05-27T18:49:25;27.50;93.80
40660;DHT22;26753;45.544;9.232;2023-05-27T18:51:51;27.20;95.50
40660;DHT22;26753;45.544;9.232;2023-05-27T18:54:17;27.10;96.70
40660;DHT22;26753;45.544;9.232;2023-05-27T18:56:43;27.00;97.90
40660;DHT22;26753;45.544;9.232;2023-05-27T18:59:51;26.90;99.20
40660;DHT22;26753;45.544;9.232;2023-05-27T19:02:15;26.70;99.90
40660;DHT22;26753;45.544;9.232;2023-05-27T19:04:42;26.60;99.90
40660;DHT22;26753;45.544;9.232;2023-05-27T19:07:13;26.60;99.90
40660;DHT22;26753;45.544;9.232;2023-05-27T19:09:45;26.50;99.90
40660;DHT22;26753;45.544;9.232;2023-05-27T19:12:27;26.40;99.90
40660;DHT22;26753;45.544;9.232;2023-05-27T19:14:55;26.40;99.90
40660;DHT22;26753;45.544;9.232;2023-05-27T19:17:27;26.40;99.90
40660;DHT22;26753;45.544;9.232;2023-05-27T19:20:07;26.30;99.90
40660;DHT22;26753;45.544;9.232;2023-05-27T19:22:36;26.20;99.90
40660;DHT22;26753;45.544;9.232;2023-05-27T19:25:03;26.20;99.90
40660;DHT22;26753;45.544;9.232;2023-05-27T19:27:51;26.20;99.90
40660;DHT22;26753;45.544;9.232;2023-05-27T19:30:36;26.10;99.90
40660;DHT22;26753;45.544;9.232;2023-05-27T19:33:02;26.10;99.90
40660;DHT22;26753;45.544;9.232;2023-05-27T19:38:14;26.10;99.90
40660;DHT22;26753;45.544;9.232;2023-05-27T19:40:55;26.10;99.90
40660;DHT22;26753;45.544;9.232;2023-05-27T19:49:32;26.10;99.90
40660;DHT22;26753;45.544;9.232;2023-05-27T19:55:08;26.00;99.90
40660;DHT22;26753;45.544;9.232;2023-05-27T19:57:44;25.70;99.90
40660;DHT22;26753;45.544;9.232;2023-05-27T20:00:10;25.90;99.90
40660;DHT22;26753;45.544;9.232;2023-05-27T20:02:38;25.90;99.90
40660;DHT22;26753;45.544;9.232;2023-05-27T20:05:04;25.80;99.90
40660;DHT22;26753;45.544;9.232;2023-05-27T20:07:30;25.90;99.90
40660;DHT22;26753;45.544;9.232;2023-05-27T20:09:59;25.80;99.90
40660;DHT22;26753;45.544;9.232;2023-05-27T20:15:22;25.70;99.90
40660;DHT22;26753;45.544;9.232;2023-05-27T20:18:16;25.60;99.90
40660;DHT22;26753;45.544;9.232;2023-05-27T20:20:42;25.60;99.90
40660;DHT22;26753;45.544;9.232;2023-05-27T20:23:11;25.60;99.90
40660;DHT22;26753;45.544;9.232;2023-05-27T20:25:37;25.60;99.90
40660;DHT22;26753;45.544;9.232;2023-05-27T20:28:03;25.60;99.90
40660;DHT22;26753;45.544;9.232;2023-05-27T20:30:42;25.60;99.90
40660;DHT22;26753;45.544;9.232;2023-05-27T20:39:05;25.50;99.90
40660;DHT22;26753;45.544;9.232;2023-05-27T20:41:54;25.20;99.90
40660;DHT22;26753;45.544;9.232;2023-05-27T20:44:20;25.10;99.90
40660;DHT22;26753;45.544;9.232;2023-05-27T20:46:48;25.00;99.90